Time;durP1;ratioP1;P1;durP2;ratioP2;P2;SDS_P1;SDS_P2;PMS_P1;PMS_P2;Temp;Humidity;BMP_temperature;BMP_pressure;BME280_temperature;BME280_humidity;BME280_pressure;Samples;Min_cycle;Max_cycle;Signal;HPM_P1;HPM_P2
2023/02/05 00:01:33;;;;;;;5.27;3.23;;;;;;;;;;5110113;27;20212;-47
2023/02/05 00:04:03;;;;;;;5.43;3.30;;;;;;;;;;5093497;28;20211;-48
2023/02/05 00:06:36;;;;;;;7.47;3.90;;;;;;;;;;5108541;28;20201;-48
2023/02/05 00:09:07;;;;;;;6.93;3.67;;;;;;;;;;5069620;28;20208;-48
2023/02/05 00:11:42;;;;;;;7.57;3.77;;;;;;;;;;5100354;27;20200;-48
2023/02/05 00:14:14;;;;;;;9.47;3.80;;;;;;;;;;5111209;27;20236;-48
2023/02/05 00:16:45;;;;;;;6.00;3.53;;;;;;;;;;5098520;28;20279;-48
2023/02/05 00:19:17;;;;;;;7.20;3.73;;;;;;;;;;5103470;28;20215;-48
2023/02/05 00:21:48;;;;;;;6.97;3.53;;;;;;;;;;5084444;28;20220;-48
2023/02/05 00:24:21;;;;;;;6.30;3.60;;;;;;;;;;5105014;28;20188;-48
2023/02/05 00:26:53;;;;;;;5.63;3.60;;;;;;;;;;5099677;27;20217;-48
2023/02/05 00:29:25;;;;;;;8.40;3.60;;;;;;;;;;5092971;28;20194;-48
2023/02/05 00:31:57;;;;;;;7.43;3.83;;;;;;;;;;5104373;28;20216;-48
2023/02/05 00:34:29;;;;;;;6.27;3.83;;;;;;;;;;5092850;28;20536;-48
2023/02/05 00:37:00;;;;;;;4.93;3.50;;;;;;;;;;5092178;28;20192;-48
2023/02/05 00:39:30;;;;;;;6.00;3.80;;;;;;;;;;5090156;28;20225;-48
2023/02/05 00:41:58;;;;;;;6.20;3.67;;;;;;;;;;5083315;28;20199;-48
2023/02/05 00:44:25;;;;;;;5.80;3.57;;;;;;;;;;5086610;28;20587;-48
2023/02/05 00:46:55;;;;;;;6.60;3.60;;;;;;;;;;5087267;28;20185;-48
2023/02/05 00:49:27;;;;;;;6.10;3.27;;;;;;;;;;5102223;28;20197;-48
2023/02/05 00:51:57;;;;;;;5.80;3.43;;;;;;;;;;5099390;28;20193;-48
2023/02/05 00:54:26;;;;;;;7.00;3.43;;;;;;;;;;5087937;28;20285;-47
2023/02/05 00:56:57;;;;;;;7.87;3.87;;;;;;;;;;5085227;28;20209;-48
2023/02/05 00:59:25;;;;;;;6.07;3.50;;;;;;;;;;5089566;28;20189;-48
2023/02/05 01:01:54;;;;;;;7.20;4.03;;;;;;;;;;5092286;28;20637;-48
2023/02/05 01:04:29;;;;;;;6.40;3.13;;;;;;;;;;5090163;28;20189;-48
2023/02/05 01:06:59;;;;;;;6.20;3.47;;;;;;;;;;5066504;28;20208;-47
2023/02/05 01:09:29;;;;;;;5.97;3.57;;;;;;;;;;5089717;28;20614;-47
2023/02/05 01:12:01;;;;;;;7.90;3.80;;;;;;;;;;5101334;28;20196;-48
2023/02/05 01:14:31;;;;;;;8.03;3.57;;;;;;;;;;5098298;28;20189;-47
2023/02/05 01:17:04;;;;;;;6.80;3.87;;;;;;;;;;5087188;28;20221;-48
2023/02/05 01:19:36;;;;;;;5.67;3.43;;;;;;;;;;5083139;28;20213;-47
2023/02/05 01:22:07;;;;;;;5.43;3.10;;;;;;;;;;5099903;28;20220;-47
2023/02/05 01:24:36;;;;;;;5.33;3.43;;;;;;;;;;5090889;28;20189;-47
2023/02/05 01:27:09;;;;;;;7.70;3.33;;;;;;;;;;5088253;28;20193;-48
2023/02/05 01:29:52;;;;;;;6.23;3.30;;;;;;;;;;5085584;28;20189;-47
2023/02/05 01:32:24;;;;;;;4.53;3.23;;;;;;;;;;5087185;28;20224;-48
2023/02/05 01:34:56;;;;;;;4.73;3.10;;;;;;;;;;5087129;28;20193;-48
2023/02/05 01:37:26;;;;;;;4.70;3.53;;;;;;;;;;5097981;28;20658;-48
2023/02/05 01:39:55;;;;;;;5.10;3.47;;;;;;;;;;5088749;28;20240;-48
2023/02/05 01:42:37;;;;;;;6.93;3.43;;;;;;;;;;5076844;28;20628;-48
2023/02/05 01:45:42;;;;;;;6.30;3.67;;;;;;;;;;5082969;28;20233;-48
2023/02/05 01:48:13;;;;;;;6.17;3.67;;;;;;;;;;5089476;28;20211;-47
2023/02/05 01:50:42;;;;;;;5.87;3.83;;;;;;;;;;5079111;28;20193;-48
2023/02/05 01:53:22;;;;;;;6.07;3.73;;;;;;;;;;5092355;28;20541;-48
2023/02/05 01:56:10;;;;;;;4.83;3.10;;;;;;;;;;5072088;28;20274;-47
2023/02/05 01:58:54;;;;;;;5.17;3.23;;;;;;;;;;5098145;28;20789;-47
2023/02/05 02:01:23;;;;;;;6.97;3.63;;;;;;;;;;5080218;28;20207;-48
2023/02/05 02:03:56;;;;;;;5.93;3.93;;;;;;;;;;5071853;28;20212;-48
2023/02/05 02:06:29;;;;;;;5.53;3.83;;;;;;;;;;5074799;28;20552;-47
2023/02/05 02:08:59;;;;;;;6.70;4.47;;;;;;;;;;5082570;28;20205;-48
2023/02/05 02:11:32;;;;;;;6.43;3.80;;;;;;;;;;5095856;28;20513;-48
2023/02/05 02:14:10;;;;;;;7.10;4.30;;;;;;;;;;5076125;28;20201;-47
2023/02/05 02:16:42;;;;;;;6.40;3.73;;;;;;;;;;5055587;28;20216;-48
2023/02/05 02:19:20;;;;;;;6.20;3.87;;;;;;;;;;5086266;28;20228;-47
2023/02/05 02:22:06;;;;;;;5.83;4.10;;;;;;;;;;5089025;28;20193;-48
2023/02/05 02:24:41;;;;;;;5.03;3.70;;;;;;;;;;5088697;28;20201;-47
2023/02/05 02:27:37;;;;;;;5.57;3.80;;;;;;;;;;5090532;28;20281;-48
2023/02/05 02:30:26;;;;;;;6.43;3.57;;;;;;;;;;5064675;28;20182;-48
2023/02/05 02:33:10;;;;;;;7.70;4.07;;;;;;;;;;5080380;28;20215;-47
2023/02/05 02:36:00;;;;;;;4.97;3.90;;;;;;;;;;5087376;28;20212;-48
2023/02/05 02:38:44;;;;;;;5.87;4.43;;;;;;;;;;5088903;28;20594;-48
2023/02/05 02:41:18;;;;;;;6.67;4.20;;;;;;;;;;5071446;28;20197;-47
2023/02/05 02:44:04;;;;;;;5.67;3.80;;;;;;;;;;5082519;28;20237;-48
2023/02/05 02:46:44;;;;;;;6.03;4.10;;;;;;;;;;5058219;28;20232;-48
2023/02/05 02:49:18;;;;;;;8.63;4.70;;;;;;;;;;5087911;28;20192;-48
2023/02/05 02:51:51;;;;;;;8.87;4.53;;;;;;;;;;5071906;28;20194;-47
2023/02/05 02:54:24;;;;;;;6.17;4.17;;;;;;;;;;5088822;28;20224;-47
2023/02/05 02:56:55;;;;;;;4.73;4.07;;;;;;;;;;5065030;28;20217;-48
2023/02/05 02:59:26;;;;;;;6.07;4.13;;;;;;;;;;5085585;28;20282;-47
2023/02/05 03:02:01;;;;;;;7.30;4.73;;;;;;;;;;5071724;28;20630;-48
2023/02/05 03:04:39;;;;;;;7.57;5.27;;;;;;;;;;5088706;28;20188;-47
2023/02/05 03:07:13;;;;;;;6.77;4.93;;;;;;;;;;5068096;28;20196;-47
2023/02/05 03:10:00;;;;;;;6.37;4.33;;;;;;;;;;5088289;28;20220;-47
2023/02/05 03:12:30;;;;;;;6.37;4.40;;;;;;;;;;5077753;28;20201;-47
2023/02/05 03:15:02;;;;;;;7.97;5.03;;;;;;;;;;5089330;28;20537;-49
2023/02/05 03:17:33;;;;;;;6.27;3.83;;;;;;;;;;5074570;28;20197;-47
2023/02/05 03:20:24;;;;;;;6.63;4.77;;;;;;;;;;5085503;28;20209;-47
2023/02/05 03:23:00;;;;;;;5.67;4.20;;;;;;;;;;5087452;28;20217;-47
2023/02/05 03:25:32;;;;;;;5.67;4.37;;;;;;;;;;5089104;28;20197;-47
2023/02/05 03:28:04;;;;;;;6.80;5.07;;;;;;;;;;5088373;28;20205;-48
2023/02/05 03:31:00;;;;;;;6.77;4.93;;;;;;;;;;5092726;28;20633;-48
2023/02/05 03:33:42;;;;;;;7.83;5.37;;;;;;;;;;5069440;28;20209;-48
2023/02/05 03:36:19;;;;;;;5.60;4.50;;;;;;;;;;5091978;28;20197;-47
2023/02/05 03:39:08;;;;;;;6.33;5.17;;;;;;;;;;5088448;28;20193;-47
2023/02/05 03:41:58;;;;;;;7.40;5.50;;;;;;;;;;5086806;28;20201;-47
2023/02/05 03:44:46;;;;;;;7.17;4.70;;;;;;;;;;5088163;28;20364;-47
2023/02/05 03:47:32;;;;;;;7.13;5.80;;;;;;;;;;5092056;28;20207;-48
2023/02/05 03:50:26;;;;;;;6.23;4.83;;;;;;;;;;5092334;28;20205;-48
2023/02/05 03:53:10;;;;;;;6.47;5.30;;;;;;;;;;5062701;28;20671;-48
2023/02/05 03:56:04;;;;;;;5.70;4.30;;;;;;;;;;5069969;28;20314;-47
2023/02/05 03:58:41;;;;;;;6.00;5.10;;;;;;;;;;5092104;28;20197;-48
2023/02/05 04:01:12;;;;;;;6.60;5.30;;;;;;;;;;5074931;28;20573;-48
2023/02/05 04:03:43;;;;;;;6.97;5.47;;;;;;;;;;5087465;28;20226;-48
2023/02/05 04:06:14;;;;;;;7.63;5.53;;;;;;;;;;5091788;28;20187;-47
2023/02/05 04:08:46;;;;;;;6.30;5.40;;;;;;;;;;5068735;28;20855;-48
2023/02/05 04:11:17;;;;;;;6.50;5.40;;;;;;;;;;5100771;28;20193;-48
2023/02/05 04:13:51;;;;;;;6.50;5.07;;;;;;;;;;5092105;28;20209;-48
2023/02/05 04:16:25;;;;;;;7.07;5.00;;;;;;;;;;5093024;28;20193;-48
2023/02/05 04:18:58;;;;;;;6.57;5.03;;;;;;;;;;5080212;28;20243;-48
2023/02/05 04:21:30;;;;;;;6.40;5.47;;;;;;;;;;5075734;28;20205;-47
2023/02/05 04:24:03;;;;;;;6.10;5.10;;;;;;;;;;5091818;28;20228;-48
2023/02/05 04:26:34;;;;;;;6.23;5.37;;;;;;;;;;5090730;28;20185;-48
2023/02/05 04:29:04;;;;;;;6.67;5.63;;;;;;;;;;5088161;28;20196;-48
2023/02/05 04:31:40;;;;;;;8.27;5.17;;;;;;;;;;5087408;28;20211;-47
2023/02/05 04:34:14;;;;;;;6.63;5.57;;;;;;;;;;5091156;28;20253;-48
2023/02/05 04:36:47;;;;;;;6.50;5.53;;;;;;;;;;5088513;28;20196;-48
2023/02/05 04:39:19;;;;;;;7.73;5.30;;;;;;;;;;5093192;28;20289;-47
2023/02/05 04:41:49;;;;;;;7.17;5.87;;;;;;;;;;5118170;27;20188;-48
2023/02/05 04:44:18;;;;;;;6.03;5.10;;;;;;;;;;5078107;28;20258;-48
2023/02/05 04:46:48;;;;;;;6.17;5.57;;;;;;;;;;5108237;28;20233;-48
2023/02/05 04:49:19;;;;;;;5.73;4.93;;;;;;;;;;5091879;28;20197;-48
2023/02/05 04:51:52;;;;;;;5.43;4.40;;;;;;;;;;5095653;28;20197;-47
2023/02/05 04:54:22;;;;;;;6.10;4.60;;;;;;;;;;5109761;28;20520;-48
2023/02/05 04:56:55;;;;;;;5.60;5.00;;;;;;;;;;5100682;28;20289;-48
2023/02/05 04:59:25;;;;;;;7.63;5.67;;;;;;;;;;5108823;28;20253;-48
2023/02/05 05:01:57;;;;;;;6.03;5.43;;;;;;;;;;5091887;27;20609;-47
2023/02/05 05:04:28;;;;;;;5.23;4.73;;;;;;;;;;5101920;28;20220;-48
2023/02/05 05:06:59;;;;;;;5.93;4.57;;;;;;;;;;5099261;28;20189;-48
2023/02/05 05:09:31;;;;;;;6.60;4.60;;;;;;;;;;5101983;27;20538;-47
2023/02/05 05:12:01;;;;;;;4.93;4.47;;;;;;;;;;5110636;28;20196;-47
2023/02/05 05:14:30;;;;;;;4.93;4.27;;;;;;;;;;5110463;28;20211;-47
2023/02/05 05:17:03;;;;;;;7.23;4.83;;;;;;;;;;5107377;28;20192;-47
2023/02/05 05:19:35;;;;;;;5.57;4.97;;;;;;;;;;5106943;28;20208;-47
2023/02/05 05:22:07;;;;;;;8.47;4.10;;;;;;;;;;5092107;28;20208;-47
2023/02/05 05:24:39;;;;;;;5.57;4.60;;;;;;;;;;5106819;28;20235;-47
2023/02/05 05:27:13;;;;;;;5.57;4.20;;;;;;;;;;5104389;27;20193;-48
2023/02/05 05:30:04;;;;;;;5.60;4.27;;;;;;;;;;5098883;28;20637;-48
2023/02/05 05:32:42;;;;;;;5.70;4.00;;;;;;;;;;5097291;28;20201;-48
2023/02/05 05:35:25;;;;;;;6.00;4.03;;;;;;;;;;5102221;28;20223;-47
2023/02/05 05:37:58;;;;;;;5.87;4.23;;;;;;;;;;5088879;28;20216;-47
2023/02/05 05:46:08;;;;;;;4.40;4.00;;;;;;;;;;5067388;28;20193;-47
2023/02/05 05:48:41;;;;;;;5.83;3.50;;;;;;;;;;5075451;28;20181;-48
2023/02/05 05:51:13;;;;;;;4.20;3.40;;;;;;;;;;5085089;28;20310;-48
2023/02/05 05:53:43;;;;;;;4.67;3.37;;;;;;;;;;5085784;28;20627;-47
2023/02/05 05:56:15;;;;;;;4.60;3.40;;;;;;;;;;5086460;28;20222;-48
2023/02/05 05:58:49;;;;;;;5.67;3.87;;;;;;;;;;5074942;28;20602;-48
2023/02/05 06:01:21;;;;;;;5.27;3.60;;;;;;;;;;5081885;28;20324;-47
2023/02/05 06:03:55;;;;;;;4.40;3.80;;;;;;;;;;5096445;28;20212;-47
2023/02/05 06:06:26;;;;;;;4.77;3.57;;;;;;;;;;5090972;28;20262;-47
2023/02/05 06:08:57;;;;;;;4.83;3.53;;;;;;;;;;5068693;28;20201;-48
2023/02/05 06:11:47;;;;;;;4.40;3.60;;;;;;;;;;5085083;28;20200;-47
2023/02/05 06:14:18;;;;;;;5.60;3.67;;;;;;;;;;5071591;28;20212;-47
2023/02/05 06:16:48;;;;;;;4.63;3.30;;;;;;;;;;5083526;28;20197;-48
2023/02/05 06:19:17;;;;;;;5.43;3.63;;;;;;;;;;5089778;28;20238;-48
2023/02/05 06:21:49;;;;;;;4.80;3.60;;;;;;;;;;5089526;28;20193;-47
2023/02/05 06:24:18;;;;;;;4.10;3.47;;;;;;;;;;5088817;28;20204;-47
2023/02/05 06:26:51;;;;;;;4.43;3.37;;;;;;;;;;5090198;28;20198;-47
2023/02/05 06:29:20;;;;;;;4.63;3.70;;;;;;;;;;5095752;28;20184;-47
2023/02/05 06:31:51;;;;;;;4.33;3.70;;;;;;;;;;5074321;28;20216;-47
2023/02/05 06:34:21;;;;;;;4.63;3.40;;;;;;;;;;5089003;28;20204;-48
2023/02/05 06:36:52;;;;;;;5.40;3.20;;;;;;;;;;5082559;28;20238;-47
2023/02/05 06:39:23;;;;;;;5.53;3.03;;;;;;;;;;5092350;28;20228;-49
2023/02/05 06:41:51;;;;;;;3.20;2.90;;;;;;;;;;5112307;28;20200;-47
2023/02/05 06:44:23;;;;;;;4.23;3.30;;;;;;;;;;5088727;28;20234;-47
2023/02/05 06:46:55;;;;;;;4.97;3.67;;;;;;;;;;5106555;28;20253;-47
2023/02/05 06:49:27;;;;;;;4.50;3.40;;;;;;;;;;5113332;28;20196;-47
2023/02/05 06:51:56;;;;;;;3.90;3.30;;;;;;;;;;5098738;28;20514;-48
2023/02/05 06:54:31;;;;;;;4.43;3.40;;;;;;;;;;5091623;27;20204;-47
2023/02/05 06:57:03;;;;;;;4.63;3.53;;;;;;;;;;5104766;28;20725;-46
2023/02/05 06:59:35;;;;;;;4.27;3.50;;;;;;;;;;5109542;28;20200;-46
2023/02/05 07:02:08;;;;;;;3.70;3.20;;;;;;;;;;5113227;27;20217;-46
2023/02/05 07:04:37;;;;;;;5.97;3.27;;;;;;;;;;5102424;28;20871;-46
2023/02/05 07:07:08;;;;;;;4.73;3.10;;;;;;;;;;5107308;28;20279;-47
2023/02/05 07:09:40;;;;;;;3.77;3.37;;;;;;;;;;5096117;28;20181;-45
2023/02/05 07:12:09;;;;;;;3.70;3.30;;;;;;;;;;5114425;27;20273;-45
2023/02/05 07:14:41;;;;;;;4.67;3.30;;;;;;;;;;5113578;28;20694;-45
2023/02/05 07:17:08;;;;;;;3.77;3.10;;;;;;;;;;5110061;27;20921;-45
2023/02/05 07:19:40;;;;;;;4.07;3.20;;;;;;;;;;5109013;28;20222;-45
2023/02/05 07:22:13;;;;;;;4.33;2.53;;;;;;;;;;5113871;28;20234;-45
2023/02/05 07:24:42;;;;;;;3.93;2.30;;;;;;;;;;5089078;28;20216;-45
2023/02/05 07:27:12;;;;;;;2.40;1.90;;;;;;;;;;5112858;27;20200;-47
2023/02/05 07:29:43;;;;;;;2.33;1.87;;;;;;;;;;5111697;28;20184;-47
2023/02/05 07:32:13;;;;;;;2.97;2.00;;;;;;;;;;5107812;28;20212;-47
2023/02/05 07:34:43;;;;;;;3.97;1.80;;;;;;;;;;5111891;28;20297;-47
2023/02/05 07:37:15;;;;;;;2.80;1.73;;;;;;;;;;5110445;27;20231;-47
2023/02/05 07:39:49;;;;;;;2.63;1.50;;;;;;;;;;5110412;28;20306;-47
2023/02/05 07:42:25;;;;;;;2.10;1.20;;;;;;;;;;5108913;27;20192;-47
2023/02/05 07:45:03;;;;;;;6.70;1.70;;;;;;;;;;5105788;27;20296;-47
2023/02/05 07:47:32;;;;;;;3.67;1.37;;;;;;;;;;5112551;27;20189;-47
2023/02/05 07:50:05;;;;;;;3.23;1.20;;;;;;;;;;5111794;27;20688;-47
2023/02/05 07:52:36;;;;;;;3.93;1.30;;;;;;;;;;5110371;27;20204;-47
2023/02/05 07:55:08;;;;;;;3.93;1.53;;;;;;;;;;5105594;27;20219;-47
2023/02/05 07:57:40;;;;;;;2.43;1.10;;;;;;;;;;5108280;28;20401;-47
2023/02/05 08:00:10;;;;;;;2.97;1.00;;;;;;;;;;5105525;28;20192;-47
2023/02/05 08:02:41;;;;;;;2.37;1.10;;;;;;;;;;5110303;28;20192;-47
2023/02/05 08:05:11;;;;;;;3.23;1.20;;;;;;;;;;5104238;27;20574;-47
2023/02/05 08:07:43;;;;;;;3.00;1.00;;;;;;;;;;5108971;28;20219;-48
2023/02/05 08:10:16;;;;;;;3.50;1.07;;;;;;;;;;5110323;28;20197;-45
2023/02/05 08:12:56;;;;;;;2.37;1.00;;;;;;;;;;5109390;28;20189;-46
2023/02/05 08:15:28;;;;;;;3.40;1.00;;;;;;;;;;5111383;27;20196;-45
2023/02/05 08:18:01;;;;;;;2.90;0.90;;;;;;;;;;5103405;27;20212;-47
2023/02/05 08:20:33;;;;;;;1.97;0.90;;;;;;;;;;5113283;27;20204;-45
2023/02/05 08:23:05;;;;;;;4.07;1.10;;;;;;;;;;5108435;28;20200;-47
2023/02/05 08:25:38;;;;;;;1.80;0.73;;;;;;;;;;5106059;28;20223;-45
2023/02/05 08:28:10;;;;;;;2.80;1.00;;;;;;;;;;5114845;27;20200;-46
2023/02/05 08:30:41;;;;;;;2.37;1.20;;;;;;;;;;5111480;28;20199;-48
2023/02/05 08:33:11;;;;;;;4.77;1.23;;;;;;;;;;5098500;28;20223;-48
2023/02/05 08:35:41;;;;;;;4.23;1.00;;;;;;;;;;5092366;28;20535;-45
2023/02/05 08:38:14;;;;;;;3.83;0.83;;;;;;;;;;5108891;27;20245;-45
2023/02/05 08:40:42;;;;;;;3.07;1.20;;;;;;;;;;5105219;28;20302;-45
2023/02/05 08:43:11;;;;;;;3.50;1.23;;;;;;;;;;5089706;28;20214;-45
2023/02/05 08:45:47;;;;;;;3.47;0.80;;;;;;;;;;5090845;28;20885;-45
2023/02/05 08:48:29;;;;;;;1.90;0.50;;;;;;;;;;5072754;28;20232;-45
2023/02/05 08:51:01;;;;;;;1.73;0.70;;;;;;;;;;5081081;28;20839;-47
2023/02/05 08:53:33;;;;;;;2.80;1.03;;;;;;;;;;5065555;28;20185;-47
2023/02/05 08:56:05;;;;;;;2.77;1.00;;;;;;;;;;5083201;28;20205;-45
2023/02/05 08:58:40;;;;;;;2.40;1.03;;;;;;;;;;5070735;28;20189;-45
2023/02/05 09:01:12;;;;;;;3.73;1.17;;;;;;;;;;5094185;28;20201;-47
2023/02/05 09:03:44;;;;;;;2.23;0.67;;;;;;;;;;5089673;28;20190;-47
2023/02/05 09:06:14;;;;;;;3.33;1.00;;;;;;;;;;5063297;28;20193;-47
2023/02/05 09:08:44;;;;;;;4.37;1.10;;;;;;;;;;5060697;28;20209;-47
2023/02/05 09:11:13;;;;;;;3.20;1.00;;;;;;;;;;5088139;28;20199;-47
2023/02/05 09:13:45;;;;;;;4.33;1.33;;;;;;;;;;5074368;28;20196;-47
2023/02/05 09:16:17;;;;;;;3.27;0.90;;;;;;;;;;5088412;28;20248;-45
2023/02/05 09:18:47;;;;;;;3.87;1.10;;;;;;;;;;5088439;28;20189;-45
2023/02/05 09:21:17;;;;;;;21.80;4.63;;;;;;;;;;5082787;28;20200;-45
2023/02/05 09:23:50;;;;;;;13.90;2.80;;;;;;;;;;5079194;28;20752;-47
2023/02/05 09:26:22;;;;;;;10.83;2.93;;;;;;;;;;5087718;28;20610;-46
2023/02/05 09:28:55;;;;;;;16.00;2.97;;;;;;;;;;5083423;28;20187;-47
2023/02/05 09:31:28;;;;;;;8.40;2.60;;;;;;;;;;5091356;28;20217;-45
2023/02/05 09:34:05;;;;;;;10.90;3.03;;;;;;;;;;5088255;28;20197;-45
2023/02/05 09:36:42;;;;;;;8.23;3.37;;;;;;;;;;5092354;28;20189;-49
2023/02/05 09:39:11;;;;;;;10.00;2.30;;;;;;;;;;5086800;28;20201;-49
2023/02/05 09:42:03;;;;;;;8.83;2.80;;;;;;;;;;5084827;28;20216;-46
2023/02/05 09:44:43;;;;;;;9.33;2.77;;;;;;;;;;5108013;27;20568;-46
2023/02/05 09:47:28;;;;;;;7.50;2.40;;;;;;;;;;5100964;28;20184;-46
2023/02/05 09:50:10;;;;;;;10.67;2.80;;;;;;;;;;5113480;27;20507;-46
2023/02/05 09:52:43;;;;;;;17.80;3.70;;;;;;;;;;5105559;27;20196;-45
2023/02/05 09:55:23;;;;;;;12.33;3.40;;;;;;;;;;5098302;28;20220;-45
2023/02/05 09:57:56;;;;;;;9.87;2.90;;;;;;;;;;5108976;27;20199;-45
2023/02/05 10:00:46;;;;;;;9.17;2.70;;;;;;;;;;5090128;28;20253;-45
2023/02/05 10:03:33;;;;;;;8.87;2.53;;;;;;;;;;5102853;28;20204;-45
2023/02/05 10:06:16;;;;;;;8.07;2.47;;;;;;;;;;5108594;27;20590;-49
2023/02/05 10:09:00;;;;;;;7.77;2.60;;;;;;;;;;5097877;27;20200;-49
2023/02/05 10:11:44;;;;;;;8.27;2.63;;;;;;;;;;5104358;28;20197;-46
2023/02/05 10:14:23;;;;;;;9.10;2.63;;;;;;;;;;5097589;28;20227;-44
2023/02/05 10:17:11;;;;;;;7.03;2.20;;;;;;;;;;5075861;28;20825;-47
2023/02/05 10:19:53;;;;;;;8.40;2.90;;;;;;;;;;5082844;28;20212;-47
2023/02/05 10:22:25;;;;;;;8.30;2.43;;;;;;;;;;5099868;28;20204;-45
2023/02/05 10:25:13;;;;;;;8.17;2.10;;;;;;;;;;5102673;28;20227;-45
2023/02/05 10:27:45;;;;;;;8.43;3.03;;;;;;;;;;5101243;28;20185;-45
2023/02/05 10:30:31;;;;;;;7.70;2.40;;;;;;;;;;5108067;28;20546;-49
2023/02/05 10:33:10;;;;;;;6.90;2.17;;;;;;;;;;5100222;28;20625;-48
2023/02/05 10:36:01;;;;;;;9.17;2.53;;;;;;;;;;5085067;28;20201;-48
2023/02/05 10:38:40;;;;;;;9.97;3.07;;;;;;;;;;5095101;28;20261;-47
2023/02/05 10:41:28;;;;;;;6.50;2.23;;;;;;;;;;5079399;28;20268;-47
2023/02/05 10:44:17;;;;;;;6.47;2.50;;;;;;;;;;5075829;28;20220;-47
2023/02/05 10:46:54;;;;;;;10.57;2.07;;;;;;;;;;5082113;28;20399;-48
2023/02/05 10:49:51;;;;;;;8.20;2.13;;;;;;;;;;5085520;28;20189;-48
2023/02/05 10:52:24;;;;;;;7.80;2.20;;;;;;;;;;5087805;28;20181;-48
2023/02/05 10:54:58;;;;;;;7.73;2.23;;;;;;;;;;5080023;28;20646;-48
2023/02/05 10:57:39;;;;;;;6.40;2.03;;;;;;;;;;5084940;28;20653;-45
2023/02/05 11:00:29;;;;;;;6.70;2.30;;;;;;;;;;5086304;28;20208;-48
2023/02/05 11:03:19;;;;;;;63.40;14.23;;;;;;;;;;5082481;28;20207;-48
2023/02/05 11:05:49;;;;;;;57.80;12.80;;;;;;;;;;5094344;28;20212;-48
2023/02/05 11:08:39;;;;;;;42.90;10.07;;;;;;;;;;5079265;28;20280;-48
2023/02/05 11:11:19;;;;;;;41.60;10.33;;;;;;;;;;5091196;28;20181;-45
2023/02/05 11:13:54;;;;;;;45.83;8.60;;;;;;;;;;5087365;28;20209;-44
2023/02/05 11:16:36;;;;;;;31.23;7.37;;;;;;;;;;5085383;28;20576;-44
2023/02/05 11:19:06;;;;;;;25.87;6.97;;;;;;;;;;5082617;28;20208;-45
2023/02/05 11:21:45;;;;;;;24.93;6.03;;;;;;;;;;5080428;28;20189;-45
2023/02/05 11:24:24;;;;;;;31.40;7.03;;;;;;;;;;5083271;28;20201;-45
2023/02/05 11:27:13;;;;;;;25.17;6.00;;;;;;;;;;5069403;28;20192;-48
2023/02/05 11:29:46;;;;;;;18.53;6.23;;;;;;;;;;5084949;28;20186;-48
2023/02/05 11:32:33;;;;;;;21.40;4.87;;;;;;;;;;5083284;28;20232;-45
2023/02/05 11:35:21;;;;;;;14.80;5.33;;;;;;;;;;5091798;28;20665;-47
2023/02/05 11:38:09;;;;;;;18.57;5.40;;;;;;;;;;5081495;28;20197;-47
2023/02/05 11:40:42;;;;;;;15.30;4.87;;;;;;;;;;5108593;27;20260;-48
2023/02/05 11:43:18;;;;;;;18.47;4.50;;;;;;;;;;5090928;28;20212;-48
2023/02/05 11:45:55;;;;;;;14.27;4.27;;;;;;;;;;5087378;28;20212;-48
2023/02/05 11:48:45;;;;;;;13.43;4.07;;;;;;;;;;5112061;27;20829;-48
2023/02/05 11:51:15;;;;;;;13.60;3.63;;;;;;;;;;5103754;28;20192;-48
2023/02/05 11:53:54;;;;;;;11.10;2.93;;;;;;;;;;5091176;28;20205;-48
2023/02/05 11:56:24;;;;;;;12.10;3.93;;;;;;;;;;5098680;28;20230;-45
2023/02/05 11:59:21;;;;;;;8.90;3.10;;;;;;;;;;5084982;28;20200;-45
2023/02/05 12:01:53;;;;;;;12.37;3.50;;;;;;;;;;5106994;28;20254;-45
2023/02/05 12:04:21;;;;;;;9.37;3.37;;;;;;;;;;5108583;28;20273;-44
2023/02/05 12:07:05;;;;;;;12.67;3.60;;;;;;;;;;5082942;28;20192;-45
2023/02/05 12:09:41;;;;;;;12.90;3.33;;;;;;;;;;5105939;28;20682;-45
2023/02/05 12:12:20;;;;;;;12.47;3.67;;;;;;;;;;5080242;28;20610;-44
2023/02/05 12:15:14;;;;;;;11.80;3.37;;;;;;;;;;5098813;28;20188;-45
2023/02/05 12:18:03;;;;;;;13.50;3.67;;;;;;;;;;5102620;28;20189;-48
2023/02/05 12:20:57;;;;;;;7.77;2.63;;;;;;;;;;5106347;28;20212;-45
2023/02/05 12:23:46;;;;;;;10.17;3.20;;;;;;;;;;5106524;28;20193;-45
2023/02/05 12:26:36;;;;;;;13.43;3.63;;;;;;;;;;5091403;28;20683;-45
2023/02/05 12:29:17;;;;;;;12.57;3.40;;;;;;;;;;5104954;28;20180;-45
2023/02/05 12:32:00;;;;;;;9.57;3.30;;;;;;;;;;5106839;27;20197;-48
2023/02/05 12:34:52;;;;;;;11.40;3.97;;;;;;;;;;5104818;28;20181;-48
2023/02/05 12:37:50;;;;;;;13.10;3.30;;;;;;;;;;5108063;27;20189;-45
2023/02/05 12:40:40;;;;;;;10.20;3.63;;;;;;;;;;5074967;28;20228;-48
2023/02/05 12:43:26;;;;;;;10.70;2.70;;;;;;;;;;5083124;27;20192;-47
2023/02/05 12:46:29;;;;;;;13.03;3.27;;;;;;;;;;5106550;27;20268;-48
2023/02/05 12:49:17;;;;;;;12.13;3.00;;;;;;;;;;5103751;27;20184;-48
2023/02/05 12:52:05;;;;;;;10.87;3.00;;;;;;;;;;5108371;27;20248;-48
2023/02/05 12:54:57;;;;;;;10.67;2.93;;;;;;;;;;5107527;27;20598;-48
2023/02/05 12:57:32;;;;;;;13.07;3.03;;;;;;;;;;5097134;27;20208;-45
2023/02/05 13:00:06;;;;;;;13.67;3.20;;;;;;;;;;5087176;27;20840;-45
2023/02/05 13:02:37;;;;;;;9.07;2.80;;;;;;;;;;5086648;28;20267;-44
2023/02/05 13:05:23;;;;;;;12.67;3.33;;;;;;;;;;5107055;27;20212;-44
2023/02/05 13:08:01;;;;;;;12.73;3.23;;;;;;;;;;5105403;28;20219;-44
2023/02/05 13:10:50;;;;;;;12.97;3.07;;;;;;;;;;5107557;27;20601;-45
2023/02/05 13:13:25;;;;;;;9.70;3.37;;;;;;;;;;5090459;28;20529;-45
2023/02/05 13:16:02;;;;;;;10.80;3.13;;;;;;;;;;5087505;28;20698;-45
2023/02/05 13:18:35;;;;;;;12.73;3.00;;;;;;;;;;5107500;28;20714;-45
2023/02/05 13:30:21;;;;;;;9.30;2.77;;;;;;;;;;5106346;28;20605;-48
2023/02/05 13:32:56;;;;;;;9.20;2.90;;;;;;;;;;5102612;27;20293;-46
2023/02/05 13:35:29;;;;;;;11.23;2.77;;;;;;;;;;5108725;28;20200;-48
2023/02/05 13:38:19;;;;;;;15.30;3.63;;;;;;;;;;5113605;27;20195;-48
2023/02/05 13:41:15;;;;;;;10.90;2.80;;;;;;;;;;5105706;27;20572;-45
2023/02/05 13:44:05;;;;;;;11.60;3.30;;;;;;;;;;5103080;28;20239;-44
2023/02/05 13:46:32;;;;;;;11.43;2.90;;;;;;;;;;5104401;27;20231;-45
2023/02/05 13:49:29;;;;;;;11.57;2.67;;;;;;;;;;5103650;28;20721;-45
2023/02/05 13:52:04;;;;;;;10.77;2.70;;;;;;;;;;5045718;28;20210;-45
2023/02/05 13:54:38;;;;;;;10.10;2.53;;;;;;;;;;5095782;28;20582;-45
2023/02/05 13:57:25;;;;;;;9.73;2.53;;;;;;;;;;5086069;28;20265;-44
2023/02/05 14:00:01;;;;;;;11.03;3.00;;;;;;;;;;5090424;28;20198;-45
2023/02/05 14:02:48;;;;;;;10.03;2.93;;;;;;;;;;5075726;28;20203;-48
2023/02/05 14:05:40;;;;;;;8.97;2.73;;;;;;;;;;5102568;27;20210;-48
2023/02/05 14:08:21;;;;;;;8.33;2.60;;;;;;;;;;5107165;27;20350;-48
2023/02/05 14:11:02;;;;;;;9.27;2.60;;;;;;;;;;5094826;28;20245;-45
2023/02/05 14:13:33;;;;;;;6.83;2.90;;;;;;;;;;5095838;28;20204;-45
2023/02/05 14:16:26;;;;;;;9.63;2.80;;;;;;;;;;5104479;28;20290;-48
2023/02/05 14:19:01;;;;;;;7.30;2.83;;;;;;;;;;5077011;28;20199;-48
2023/02/05 14:21:31;;;;;;;7.03;2.27;;;;;;;;;;5086240;28;20200;-48
2023/02/05 14:24:19;;;;;;;9.93;2.80;;;;;;;;;;5101574;28;20969;-47
2023/02/05 14:26:51;;;;;;;5.90;1.93;;;;;;;;;;5101669;28;20269;-47
2023/02/05 14:29:41;;;;;;;8.93;2.30;;;;;;;;;;5087816;28;20261;-48
2023/02/05 14:32:30;;;;;;;7.73;2.47;;;;;;;;;;5097855;28;20848;-48
2023/02/05 14:35:31;;;;;;;5.93;2.30;;;;;;;;;;5102598;28;20274;-48
2023/02/05 14:38:17;;;;;;;9.10;2.13;;;;;;;;;;5101976;28;20608;-48
2023/02/05 14:41:09;;;;;;;9.67;2.30;;;;;;;;;;5099590;28;20220;-48
2023/02/05 14:43:41;;;;;;;7.33;2.60;;;;;;;;;;5102579;28;20204;-48
2023/02/05 14:46:20;;;;;;;7.47;1.97;;;;;;;;;;5104601;28;20208;-45
2023/02/05 14:48:51;;;;;;;8.47;2.50;;;;;;;;;;5100319;28;20219;-44
2023/02/05 14:51:31;;;;;;;8.07;2.50;;;;;;;;;;5104609;28;20188;-48
2023/02/05 14:54:04;;;;;;;6.67;2.20;;;;;;;;;;5105962;28;20207;-48
2023/02/05 14:56:42;;;;;;;6.87;2.23;;;;;;;;;;5098216;28;20212;-44
2023/02/05 14:59:36;;;;;;;6.20;2.13;;;;;;;;;;5103662;28;20200;-44
2023/02/05 15:02:25;;;;;;;7.60;2.60;;;;;;;;;;5105633;28;20644;-44
2023/02/05 15:05:01;;;;;;;6.93;2.73;;;;;;;;;;5103330;28;20204;-44
2023/02/05 15:07:45;;;;;;;5.43;2.20;;;;;;;;;;5082816;28;20285;-45
2023/02/05 15:10:19;;;;;;;6.20;1.93;;;;;;;;;;5079581;27;20253;-48
2023/02/05 15:13:06;;;;;;;6.77;2.57;;;;;;;;;;5103685;28;20562;-47
2023/02/05 15:16:03;;;;;;;7.67;1.77;;;;;;;;;;5095635;28;20240;-45
2023/02/05 15:18:56;;;;;;;7.70;2.27;;;;;;;;;;5101318;28;20227;-45
2023/02/05 15:21:42;;;;;;;5.53;2.17;;;;;;;;;;5108819;27;20237;-45
2023/02/05 15:24:23;;;;;;;6.27;2.00;;;;;;;;;;5100570;27;20224;-45
2023/02/05 15:26:59;;;;;;;5.87;2.47;;;;;;;;;;5081767;28;20277;-48
2023/02/05 15:29:51;;;;;;;7.00;2.50;;;;;;;;;;5108962;27;20877;-48
2023/02/05 15:32:54;;;;;;;5.53;2.23;;;;;;;;;;5083165;28;20227;-48
2023/02/05 15:35:24;;;;;;;7.93;2.10;;;;;;;;;;5073446;27;20628;-48
2023/02/05 15:38:00;;;;;;;7.03;2.03;;;;;;;;;;5081463;27;20189;-48
2023/02/05 15:40:33;;;;;;;6.00;2.20;;;;;;;;;;5072943;28;20239;-45
2023/02/05 15:43:32;;;;;;;5.67;1.87;;;;;;;;;;5105519;27;20197;-44
2023/02/05 15:46:05;;;;;;;7.30;1.70;;;;;;;;;;5108233;27;20236;-48
2023/02/05 15:48:38;;;;;;;14.67;2.03;;;;;;;;;;5108512;28;20263;-48
2023/02/05 15:51:28;;;;;;;6.10;2.13;;;;;;;;;;5086075;28;20202;-45
2023/02/05 15:54:02;;;;;;;6.87;2.23;;;;;;;;;;5109766;28;20787;-45